Hutchinson, MN

3:11 PM CDT on September 19, 2017 (GMT -0500)
Hutchinson Municipal-Butler

Weather History for KHCD - January, 2014

Change the Weather History Date:

Friday, January 3, 2014

  Actual Average Record
Temperature  
Mean Temperature 8 °F -  
Max Temperature 32 °F 21 °F 43 °F (1962)
Min Temperature -14 °F 1 °F -17 °F (1959)
Degree Days  
Heating Degree Days 56    
Moisture  
Dew Point 7 °F    
Average Humidity 82    
Maximum Humidity 95    
Minimum Humidity 69    
Precipitation  
Precipitation 0.00 in - - ()
Sea Level Pressure  
Sea Level Pressure 29.76 in    
Wind  
Wind Speed 9 mph (SSE)    
Max Wind Speed 21 mph    
Max Gust Speed 30 mph    
Visibility 7 miles    
Events Snow    
Averages and records for this station are not official NWS values.
T = Trace of Precipitation, MM = Missing Value Source: NWS Daily Summary

Daily Weather History Graph

Daily Weather History Graph

Search for Another Location

Airport or City:

Trip Planner

Search our weather history database for the weather conditions in past years. The results will help you decide how hot, cold, wet, or windy it might be!

Date:

Astronomy

Jan. 03, 2014 Rise Set
Actual Time 7:55 AM CST 4:49 PM CST
Civil Twilight 7:21 AM CST 5:22 PM CST
Nautical Twilight 6:44 AM CST 5:59 PM CST
Astronomical Twilight 6:09 AM CST 6:34 PM CST
Moon 9:14 AM CST (1/3) 8:08 PM CST (1/3)
Length of Visible Light 10h 00m
Length of Day
8h 53m
Waxing Crescent, 8% of the Moon is Illuminated
Jan 3
Waxing Crescent
Jan 7
First Quarter
Jan 15
Full
Jan 23
Last Quarter
Jan 30
New

Hourly Weather History & Observations

Time (CST) Temp. Windchill Dew Point Humidity Pressure Visibility Wind Dir Wind Speed Gust Speed Precip Events Conditions
12:14 AM -14.4 °F -24.3 °F -19.3 °F 79% 30.31 in 10.0 mi SSE 3.5 mph - N/A   Clear
12:32 AM -13.7 °F -25.9 °F -18.4 °F 80% 30.30 in 10.0 mi South 4.6 mph - N/A   Clear
12:53 AM -13.0 °F -22.7 °F -17.9 °F 79% 30.29 in 10.0 mi South 3.5 mph - N/A   Clear
1:12 AM -12.8 °F -22.5 °F -17.7 °F 79% 30.27 in 10.0 mi SSE 3.5 mph - N/A   Scattered Clouds
1:33 AM -10.5 °F -19.8 °F -15.5 °F 78% 30.26 in 10.0 mi SSE 3.5 mph - N/A   Scattered Clouds
1:54 AM -10.3 °F -21.9 °F -15.2 °F 79% 30.25 in 10.0 mi SSE 4.6 mph - N/A   Scattered Clouds
2:13 AM -9.6 °F -22.9 °F -14.8 °F 78% 30.23 in 10.0 mi SSE 5.8 mph - N/A   Scattered Clouds
2:33 AM -7.6 °F -22.1 °F -13.5 °F 75% 30.21 in 10.0 mi SSE 6.9 mph - N/A   Scattered Clouds
2:53 AM -6.7 °F -21.0 °F -13.0 °F 74% 30.21 in 10.0 mi SSE 6.9 mph - N/A   Mostly Cloudy
3:13 AM -6.3 °F -23.1 °F -12.5 °F 75% 30.18 in 10.0 mi SE 9.2 mph - N/A   Scattered Clouds
3:33 AM -5.4 °F -21.9 °F -11.7 °F 74% 30.16 in 10.0 mi SE 9.2 mph - N/A   Mostly Cloudy
3:53 AM -4.5 °F -21.9 °F -11.2 °F 73% 30.14 in 10.0 mi SE 10.4 mph - N/A   Mostly Cloudy
4:13 AM -3.3 °F -18.2 °F -9.6 °F 74% 30.12 in 10.0 mi SSE 8.1 mph 16.1 mph N/A   Overcast
4:33 AM -3.1 °F -16.7 °F -9.4 °F 74% 30.11 in 10.0 mi SSE 6.9 mph - N/A   Overcast
4:53 AM -2.2 °F -16.8 °F -9.0 °F 73% 30.09 in 10.0 mi SSE 8.1 mph - N/A   Overcast
5:14 AM -0.6 °F -14.9 °F -8.0 °F 71% 30.07 in 10.0 mi SSE 8.1 mph - N/A   Overcast
5:33 AM -0.2 °F -17.4 °F -8.0 °F 70% 30.05 in 10.0 mi SSE 11.5 mph 20.7 mph N/A   Overcast
5:53 AM -0.4 °F -17.6 °F -8.0 °F 70% 30.04 in 10.0 mi SE 11.5 mph 19.6 mph N/A   Overcast
6:12 AM 0.3 °F -19.0 °F -7.6 °F 69% 30.02 in 10.0 mi SE 15.0 mph 18.4 mph N/A   Overcast
6:33 AM 1.2 °F -17.1 °F -6.3 °F 71% 30.00 in 10.0 mi SE 13.8 mph - N/A   Mostly Cloudy
6:54 AM 2.3 °F -15.7 °F -4.9 °F 72% 29.98 in 10.0 mi SE 13.8 mph 18.4 mph N/A   Mostly Cloudy
7:13 AM 3.2 °F -11.3 °F -4.0 °F 72% 29.96 in 10.0 mi SSE 9.2 mph 21.9 mph N/A   Mostly Cloudy
7:33 AM 3.9 °F -11.3 °F -2.7 °F 74% 29.94 in 10.0 mi SSE 10.4 mph 17.3 mph N/A   Overcast
7:54 AM 5.0 °F -13.0 °F -1.3 °F 75% 29.91 in 10.0 mi SSE 15.0 mph 21.9 mph N/A   Overcast
8:13 AM 5.0 °F -10.8 °F -0.6 °F 78% 29.89 in 10.0 mi SSE 11.5 mph 21.9 mph N/A   Overcast
8:33 AM 5.7 °F -8.2 °F 0.1 °F 78% 29.90 in 7.0 mi SSE 9.2 mph 24.2 mph N/A Snow Light Snow
8:54 AM 5.9 °F -10.5 °F 1.2 °F 81% 29.86 in 3.0 mi SSE 12.7 mph 20.7 mph N/A Snow Light Snow
9:13 AM 6.6 °F -9.5 °F 2.3 °F 82% 29.84 in 1.8 mi SSE 12.7 mph 19.6 mph N/A Snow Light Snow
9:33 AM 7.7 °F -7.4 °F 3.7 °F 84% 29.83 in 2.0 mi SSE 11.5 mph 20.7 mph N/A Snow Light Snow
9:54 AM 8.2 °F -5.1 °F 4.1 °F 83% 29.82 in 1.8 mi SSE 9.2 mph 21.9 mph N/A Snow Light Snow
10:13 AM 8.4 °F -5.7 °F 4.8 °F 85% 29.79 in 1.0 mi SSE 10.4 mph 20.7 mph N/A Snow Light Snow
10:33 AM 9.5 °F -5.2 °F 5.9 °F 85% 29.79 in 0.8 mi South 11.5 mph 17.3 mph N/A Snow Light Snow
10:54 AM 10.9 °F -6.5 °F 7.5 °F 86% 29.77 in 0.8 mi South 17.3 mph 21.9 mph N/A Snow Light Snow
11:13 AM 12.2 °F -5.3 °F 8.8 °F 86% 29.75 in 0.5 mi South 18.4 mph 21.9 mph N/A Snow Light Snow
11:33 AM 12.7 °F -5.5 °F 9.1 °F 86% 29.73 in 0.8 mi South 20.7 mph 26.5 mph N/A Snow Light Snow
11:53 AM 13.1 °F -4.2 °F 9.5 °F 86% 29.70 in 1.0 mi South 18.4 mph 25.3 mph N/A Snow Light Snow
12:13 PM 13.6 °F -3.0 °F 10.4 °F 87% 29.67 in 1.0 mi South 17.3 mph 29.9 mph N/A Snow Light Snow
12:33 PM 14.4 °F -0.4 °F 10.8 °F 86% 29.65 in 1.5 mi South 13.8 mph 23.0 mph N/A Snow Light Snow
12:53 PM 14.9 °F 0.9 °F 11.5 °F 86% 29.64 in 1.2 mi South 12.7 mph 24.2 mph N/A Snow Light Snow
1:13 PM 15.3 °F 0.2 °F 11.8 °F 86% 29.63 in 1.5 mi South 15.0 mph 20.7 mph N/A   Overcast
1:32 PM 15.8 °F -0.2 °F 12.6 °F 87% 29.59 in 1.0 mi South 17.3 mph 24.2 mph N/A   Overcast
1:53 PM 16.7 °F 3.8 °F 13.1 °F 86% 29.57 in 1.5 mi South 11.5 mph 21.9 mph N/A   Overcast
2:14 PM 17.1 °F 5.8 °F 14.0 °F 88% 29.55 in 1.5 mi SSE 9.2 mph 19.6 mph N/A   Overcast
2:33 PM 18.3 °F 4.6 °F 15.4 °F 89% 29.54 in 2.0 mi South 13.8 mph 19.6 mph N/A   Overcast
2:53 PM 19.2 °F 7.7 °F 16.9 °F 91% 29.53 in 1.2 mi South 10.4 mph - N/A   Overcast
3:14 PM 20.7 °F 6.6 °F 18.3 °F 91% 29.53 in 1.5 mi South 16.1 mph 23.0 mph N/A   Overcast
3:33 PM 21.2 °F 8.9 °F 18.3 °F 89% 29.53 in 4.0 mi South 12.7 mph 19.6 mph N/A   Overcast
3:53 PM 21.4 °F 9.1 °F 18.5 °F 89% 29.52 in 4.0 mi South 12.7 mph - N/A   Overcast
4:13 PM 22.3 °F 10.2 °F 18.3 °F 85% 29.52 in 10.0 mi South 12.7 mph 21.9 mph N/A   Overcast
4:33 PM 22.8 °F 12.2 °F 18.3 °F 83% 29.51 in 10.0 mi South 10.4 mph 16.1 mph N/A   Mostly Cloudy
4:53 PM 22.8 °F 11.5 °F 18.3 °F 83% 29.50 in 10.0 mi South 11.5 mph 17.3 mph N/A   Scattered Clouds
5:13 PM 22.8 °F 12.2 °F 18.5 °F 83% 29.50 in 10.0 mi South 10.4 mph 16.1 mph N/A   Mostly Cloudy
5:33 PM 23.0 °F 10.6 °F 18.5 °F 83% 29.48 in 10.0 mi South 13.8 mph 20.7 mph N/A   Mostly Cloudy
5:53 PM 23.5 °F 13.0 °F 19.2 °F 84% 29.49 in 10.0 mi South 10.4 mph 17.3 mph N/A   Overcast
6:13 PM 23.9 °F 12.3 °F 19.6 °F 84% 29.49 in 10.0 mi South 12.7 mph 18.4 mph N/A   Overcast
6:33 PM 24.4 °F 12.4 °F 20.1 °F 84% 29.48 in 10.0 mi South 13.8 mph 18.4 mph N/A   Overcast
6:53 PM 24.8 °F 12.9 °F 20.5 °F 84% 29.47 in 10.0 mi South 13.8 mph 19.6 mph N/A   Overcast
7:14 PM 25.2 °F 12.9 °F 20.8 °F 84% 29.46 in 10.0 mi South 15.0 mph 20.7 mph N/A   Overcast
7:33 PM 25.5 °F 13.8 °F 21.2 °F 84% 29.45 in 10.0 mi South 13.8 mph 19.6 mph N/A   Overcast
7:53 PM 25.7 °F 14.6 °F 21.6 °F 84% 29.45 in 10.0 mi South 12.7 mph 18.4 mph N/A   Overcast
8:13 PM 26.1 °F 14.0 °F 21.9 °F 84% 29.44 in 10.0 mi South 15.0 mph 19.6 mph N/A   Overcast
8:33 PM 26.2 °F 14.7 °F 22.6 °F 86% 29.43 in 7.0 mi South 13.8 mph 19.6 mph N/A   Overcast
8:53 PM 27.1 °F 16.4 °F 23.9 °F 88% 29.43 in 5.0 mi South 12.7 mph 18.4 mph N/A   Overcast
9:13 PM 27.9 °F 17.3 °F 25.0 °F 89% 29.42 in 4.0 mi South 12.7 mph - N/A   Overcast
9:33 PM 28.2 °F 17.2 °F 25.3 °F 89% 29.43 in 5.0 mi South 13.8 mph 18.4 mph N/A   Overcast
9:53 PM 28.9 °F 18.6 °F 26.4 °F 90% 29.42 in 4.0 mi South 12.7 mph 18.4 mph N/A Snow Light Snow
10:13 PM 29.7 °F 18.6 °F 27.5 °F 92% 29.41 in 4.0 mi South 15.0 mph 18.4 mph N/A Snow Light Snow
10:33 PM 30.2 °F 20.8 °F 28.2 °F 92% 29.41 in 4.0 mi South 11.5 mph 17.3 mph N/A Snow Light Snow
10:54 PM 31.1 °F 23.7 °F 29.3 °F 93% 29.42 in 5.0 mi SSW 8.1 mph - N/A   Overcast
11:14 PM 31.5 °F 24.2 °F 29.8 °F 94% 29.39 in 7.0 mi South 8.1 mph - N/A   Overcast
11:33 PM 31.6 °F 24.4 °F 30.2 °F 94% 29.39 in 7.0 mi South 8.1 mph - N/A   Overcast
11:53 PM 32.0 °F 23.6 °F 30.7 °F 95% 29.39 in 7.0 mi South 10.4 mph - N/A   Overcast